createdAt,value
2022-08-27T00:01:32.215Z,83.53
2022-08-27T00:06:24.658Z,83.78
2022-08-27T00:11:18.863Z,83.88
2022-08-27T00:16:12.590Z,84.15
2022-08-27T00:21:05.021Z,83.95
2022-08-27T00:25:59.529Z,83.88
2022-08-27T00:30:51.141Z,83.91
2022-08-27T00:35:42.853Z,83.66
2022-08-27T00:40:34.756Z,83.65
2022-08-27T00:45:26.744Z,83.11
2022-08-27T00:50:28.121Z,82.96
2022-08-27T00:55:24.574Z,82.98
2022-08-27T01:00:18.582Z,82.75
2022-08-27T01:05:15.345Z,82.74
2022-08-27T01:10:11.069Z,83.34
2022-08-27T01:15:07.399Z,83.45
2022-08-27T01:20:08.957Z,83.75
2022-08-27T01:25:06.112Z,83.50
2022-08-27T01:29:58.947Z,83.62
2022-08-27T01:34:51.458Z,82.76
2022-08-27T01:39:44.674Z,82.83
2022-08-27T01:44:51.069Z,82.42
2022-08-27T01:49:42.864Z,82.68
2022-08-27T01:54:34.861Z,81.72
2022-08-27T01:59:39.115Z,81.88
2022-08-27T02:04:31.977Z,81.65
2022-08-27T02:09:23.986Z,82.00
2022-08-27T02:14:15.781Z,82.40
2022-08-27T02:19:07.571Z,82.78
2022-08-27T02:24:03.150Z,84.53
2022-08-27T02:28:55.401Z,86.41
2022-08-27T02:33:47.234Z,87.34
2022-08-27T02:38:38.972Z,87.90
2022-08-27T02:43:31.561Z,89.24
2022-08-27T02:48:24.733Z,89.49
2022-08-27T02:53:17.029Z,89.45
2022-08-27T02:58:09.788Z,90.10
2022-08-27T03:03:02.627Z,90.54
2022-08-27T03:07:54.374Z,90.49
2022-08-27T03:12:46.284Z,91.12
2022-08-27T03:17:56.528Z,90.73
2022-08-27T03:22:48.240Z,91.18
2022-08-27T03:27:39.894Z,91.43
2022-08-27T03:32:31.966Z,91.42
2022-08-27T03:37:23.622Z,91.62
2022-08-27T03:42:15.430Z,91.96
2022-08-27T03:47:07.195Z,91.80
2022-08-27T03:51:59.156Z,92.23
2022-08-27T03:56:51.533Z,91.96
2022-08-27T04:01:44.870Z,93.18
2022-08-27T04:06:36.883Z,93.24
2022-08-27T04:11:29.587Z,93.08
2022-08-27T04:16:21.832Z,93.53
2022-08-27T04:21:15.438Z,94.17
2022-08-27T04:26:09.097Z,94.75
2022-08-27T04:31:02.909Z,94.19
2022-08-27T04:36:02.814Z,94.82
2022-08-27T04:41:13.853Z,95.02
2022-08-27T04:46:06.220Z,94.40
2022-08-27T04:50:58.065Z,94.80
2022-08-27T04:55:52.648Z,94.11
2022-08-27T05:00:48.513Z,94.57
2022-08-27T05:05:41.923Z,95.14
2022-08-27T05:10:44.117Z,94.79
2022-08-27T05:15:36.111Z,95.35
2022-08-27T05:20:29.716Z,95.43
2022-08-27T05:25:22.138Z,95.49
2022-08-27T05:30:13.973Z,96.57
2022-08-27T05:35:06.561Z,97.12
2022-08-27T05:39:58.331Z,97.64
2022-08-27T05:49:41.787Z,98.16
2022-08-27T05:54:33.887Z,98.38
2022-08-27T05:59:43.812Z,98.70
2022-08-27T06:04:36.838Z,98.47
2022-08-27T06:09:29.403Z,99.03
2022-08-27T06:14:21.487Z,98.47
2022-08-27T06:19:13.405Z,98.36
2022-08-27T06:24:05.172Z,98.08
2022-08-27T06:28:58.253Z,97.58
2022-08-27T06:33:51.956Z,96.54
2022-08-27T06:38:43.815Z,96.97
2022-08-27T06:43:38.912Z,95.75
2022-08-27T06:48:30.511Z,95.30
2022-08-27T06:53:25.705Z,95.37
2022-08-27T06:58:19.341Z,94.22
2022-08-27T07:03:12.112Z,92.34
2022-08-27T07:08:05.045Z,90.18
2022-08-27T07:12:56.810Z,87.64
2022-08-27T07:17:48.614Z,87.32
2022-08-27T07:22:41.207Z,83.91
2022-08-27T07:27:32.873Z,79.23
2022-08-27T07:32:30.588Z,73.98
2022-08-27T07:37:23.610Z,73.85
2022-08-27T07:42:35.999Z,74.76
2022-08-27T07:47:27.668Z,74.44
2022-08-27T07:52:21.678Z,74.05
2022-08-27T07:57:16.331Z,76.88
2022-08-27T08:02:08.024Z,75.31
2022-08-27T08:06:59.794Z,69.35
2022-08-27T08:11:53.332Z,67.35
2022-08-27T08:16:45.289Z,66.42
2022-08-27T08:21:38.694Z,64.25
2022-08-27T08:26:30.431Z,60.88
2022-08-27T08:31:24.125Z,61.05
2022-08-27T08:36:17.515Z,59.37
2022-08-27T08:41:27.882Z,60.54
2022-08-27T08:46:37.633Z,57.59
2022-08-27T08:51:40.243Z,57.46
2022-08-27T08:56:43.727Z,56.77
2022-08-27T09:01:35.539Z,58.85
2022-08-27T09:06:32.146Z,57.58
2022-08-27T09:11:40.272Z,59.40
2022-08-27T09:16:32.683Z,57.58
2022-08-27T09:21:36.546Z,56.59
2022-08-27T09:26:31.740Z,57.53
2022-08-27T09:31:23.601Z,58.86
2022-08-27T09:36:21.614Z,57.97
2022-08-27T09:41:22.330Z,58.05
2022-08-27T09:46:21.387Z,56.06
2022-08-27T09:51:21.931Z,55.07
2022-08-27T09:56:22.767Z,56.88
2022-08-27T10:01:22.401Z,55.88
2022-08-27T10:06:14.132Z,54.60
2022-08-27T10:11:14.494Z,55.96
2022-08-27T10:16:35.185Z,54.71
2022-08-27T10:21:52.938Z,53.04
2022-08-27T10:26:51.521Z,53.71
2022-08-27T10:32:08.112Z,53.46
2022-08-27T10:37:19.921Z,52.43
2022-08-27T10:42:26.874Z,51.06
2022-08-27T10:47:37.321Z,48.98
2022-08-27T10:52:44.898Z,47.72
2022-08-27T10:58:00.808Z,47.04
2022-08-27T11:02:58.689Z,47.29
2022-08-27T11:07:56.348Z,47.51
2022-08-27T11:12:51.847Z,46.49
2022-08-27T11:18:01.864Z,45.27
2022-08-27T11:23:09.662Z,44.72
2022-08-27T11:28:04.735Z,43.78
2022-08-27T11:33:13.669Z,43.22
2022-08-27T11:38:27.514Z,43.43
2022-08-27T11:43:24.817Z,42.21
2022-08-27T11:48:16.445Z,42.15
2022-08-27T11:53:08.735Z,42.52
2022-08-27T11:58:18.161Z,42.29
2022-08-27T12:03:19.059Z,41.74
2022-08-27T12:08:13.701Z,42.35
2022-08-27T12:13:08.703Z,41.89
2022-08-27T12:18:32.646Z,42.72
2022-08-27T12:23:55.350Z,43.80
2022-08-27T12:28:47.453Z,43.81
2022-08-27T12:33:46.125Z,43.93
2022-08-27T12:38:53.335Z,44.21
2022-08-27T12:43:45.773Z,45.69
2022-08-27T12:48:42.186Z,45.43
2022-08-27T12:54:10.910Z,43.89
2022-08-27T12:59:10.928Z,43.00
2022-08-27T13:04:05.501Z,43.97
2022-08-27T13:09:00.161Z,45.06
2022-08-27T13:13:53.012Z,45.99
2022-08-27T13:18:50.616Z,45.91
2022-08-27T13:23:49.067Z,46.39
2022-08-27T13:28:43.222Z,46.61
2022-08-27T13:33:37.393Z,47.36
2022-08-27T13:38:32.061Z,47.38
2022-08-27T13:43:59.254Z,47.92
2022-08-27T13:48:54.847Z,48.01
2022-08-27T13:54:07.571Z,48.09
2022-08-27T13:59:21.381Z,48.77
2022-08-27T14:04:23.478Z,49.52
2022-08-27T14:09:27.570Z,47.25
2022-08-27T14:14:19.298Z,47.62
2022-08-27T14:19:12.342Z,46.83
2022-08-27T14:24:04.427Z,45.86
2022-08-27T14:28:56.550Z,45.45
2022-08-27T14:33:48.935Z,44.94
2022-08-27T14:38:44.870Z,42.59
2022-08-27T14:43:38.185Z,43.02
2022-08-27T14:48:33.237Z,44.12
2022-08-27T14:53:26.446Z,44.85
2022-08-27T14:58:18.185Z,45.55
2022-08-27T15:03:10.938Z,46.16
2022-08-27T15:08:04.290Z,47.47
2022-08-27T15:12:56.396Z,47.94
2022-08-27T15:17:48.277Z,47.90
2022-08-27T15:22:44.188Z,48.84
2022-08-27T15:27:39.133Z,49.04
2022-08-27T15:32:33.445Z,49.01
2022-08-27T15:37:25.627Z,48.42
2022-08-27T15:42:17.513Z,48.96
2022-08-27T15:47:09.262Z,49.28
2022-08-27T15:52:01.031Z,49.41
2022-08-27T15:56:52.697Z,49.02
2022-08-27T16:01:44.883Z,49.37
2022-08-27T16:06:36.880Z,49.80
2022-08-27T16:11:28.815Z,49.10
2022-08-27T16:16:25.413Z,49.75
2022-08-27T16:21:17.339Z,49.06
2022-08-27T16:26:08.981Z,49.38
2022-08-27T16:31:01.630Z,49.63
2022-08-27T16:35:54.595Z,49.55
2022-08-27T16:40:54.789Z,49.30
2022-08-27T16:45:47.038Z,48.88
2022-08-27T16:50:39.732Z,49.76
2022-08-27T16:55:32.423Z,48.79
2022-08-27T17:00:24.382Z,47.69
2022-08-27T17:05:33.881Z,48.08
2022-08-27T17:10:31.837Z,47.56
2022-08-27T17:15:23.560Z,46.32
2022-08-27T17:20:15.511Z,46.64
2022-08-27T17:25:08.214Z,46.94
2022-08-27T17:29:59.956Z,47.89
2022-08-27T17:34:51.683Z,47.97
2022-08-27T17:39:43.387Z,47.47
2022-08-27T17:44:37.189Z,47.44
2022-08-27T17:49:31.098Z,47.61
2022-08-27T17:54:40.250Z,47.85
2022-08-27T17:59:32.037Z,47.93
2022-08-27T18:04:24.104Z,48.19
2022-08-27T18:09:16.127Z,48.24
2022-08-27T18:14:08.240Z,48.20
2022-08-27T18:19:00.282Z,48.44
2022-08-27T18:23:54.547Z,49.37
2022-08-27T18:28:47.243Z,49.86
2022-08-27T18:33:39.794Z,50.49
2022-08-27T18:38:31.633Z,51.11
2022-08-27T18:43:29.719Z,51.79
2022-08-27T18:48:23.288Z,52.21
2022-08-27T18:53:17.548Z,52.52
2022-08-27T18:58:09.509Z,52.62
2022-08-27T19:03:01.850Z,52.95
2022-08-27T19:07:53.716Z,53.35
2022-08-27T19:12:46.893Z,53.08
2022-08-27T19:17:40.261Z,52.79
2022-08-27T19:22:32.756Z,53.04
2022-08-27T19:27:26.662Z,53.33
2022-08-27T19:32:18.909Z,52.60
2022-08-27T19:37:16.800Z,52.29
2022-08-27T19:42:08.558Z,52.54
2022-08-27T19:47:00.504Z,52.45
2022-08-27T19:51:52.842Z,52.55
2022-08-27T19:56:44.634Z,52.35
2022-08-27T20:01:36.662Z,52.56
2022-08-27T20:06:31.463Z,53.09
2022-08-27T20:11:23.575Z,53.66
2022-08-27T20:16:15.326Z,53.54
2022-08-27T20:21:07.274Z,53.97
2022-08-27T20:26:01.250Z,53.99
2022-08-27T20:30:53.451Z,54.16
2022-08-27T20:35:45.274Z,54.80
2022-08-27T20:40:37.039Z,55.25
2022-08-27T20:45:30.202Z,55.96
2022-08-27T20:50:25.040Z,56.23
2022-08-27T20:55:17.752Z,56.80
2022-08-27T21:00:22.360Z,57.29
2022-08-27T21:05:16.508Z,57.36
2022-08-27T21:10:09.085Z,57.91
2022-08-27T21:15:04.093Z,57.83
2022-08-27T21:19:56.111Z,58.22
2022-08-27T21:24:47.770Z,58.51
2022-08-27T21:29:40.761Z,58.93
2022-08-27T21:34:32.505Z,58.81
2022-08-27T21:39:24.407Z,59.41
2022-08-27T21:44:16.266Z,59.43
2022-08-27T21:49:07.928Z,59.80
2022-08-27T21:54:00.134Z,59.93
2022-08-27T21:58:52.292Z,60.85
2022-08-27T22:03:50.738Z,61.26
2022-08-27T22:08:43.695Z,61.68
2022-08-27T22:13:36.048Z,62.14
2022-08-27T22:18:28.219Z,62.38
2022-08-27T22:23:21.511Z,62.72
2022-08-27T22:28:14.272Z,62.89
2022-08-27T22:33:06.184Z,63.13
2022-08-27T22:37:58.474Z,63.70
2022-08-27T22:42:50.965Z,64.14
2022-08-27T22:47:42.776Z,64.41
2022-08-27T22:52:36.203Z,64.87
2022-08-27T22:57:27.867Z,64.90
2022-08-27T23:02:19.498Z,65.33
2022-08-27T23:07:11.218Z,65.50
2022-08-27T23:12:04.387Z,66.02
2022-08-27T23:16:56.467Z,66.11
2022-08-27T23:21:48.522Z,66.37
2022-08-27T23:26:58.797Z,66.63
2022-08-27T23:31:51.441Z,66.55
2022-08-27T23:36:43.116Z,66.97
2022-08-27T23:41:35.533Z,67.11
2022-08-27T23:46:27.534Z,67.52
2022-08-27T23:51:19.330Z,67.49
2022-08-27T23:56:11.301Z,67.88
